»·PEaware :: N516DM KSNA-KVNY

N516DM :: KSNA-KVNY

FLIGHT INFORMATION

Flight Status: Arrived
Operator: Privately registered:
United States
More flights under this callsign
Pilot: Isaac R. (8401)
Aircraft: CESSNA 182 SKYLANE
(C182)
More flights by this aircraft type
Origin: KSNA John Wayne-Orange Co
United States
Destination: KVNY Van Nuys
United States
More flights between these airports :: More routes between these airports
Route: +SLI V23 POPPR SMO125R SMO SMO317R CANOG
File this flight plan on PilotEdge
Remarks: CSTN3
Altitude:
(Current/Filed)
4,000ft
Speed:
(Current/Filed)
110kts
Departed: 23-Jun-18 06:17 PM
Arrived: 23-Jun-18 07:02 PM
Distance/Time
Traveled:
45nm/0:45
Distance/Time
To Go:
Arrived

Flight Plot

Page will automatically refresh every two minutes.


Map Options




Map Legend


Flown Route
Filed Route
Departure Airport
Arrival Airport
Navaid (VOR, NDB)
Fix

Horizontal Profiles

Position Reports

Time Latitude Longitude Heading Altitude Ground
Speed
23-Jun-18 18:00 33.670668 -117.868096 214 59ft 0kts
23-Jun-18 18:01 33.670668 -117.868096 214 59ft 0kts
23-Jun-18 18:02 33.670656 -117.868107 216 59ft 0kts
23-Jun-18 18:03 33.670588 -117.868187 223 59ft 0kts
23-Jun-18 18:04 33.670289 -117.868899 253 59ft 0kts
23-Jun-18 18:05 33.670288 -117.868903 253 59ft 0kts
23-Jun-18 18:07 33.670662 -117.868101 214 59ft 0kts
23-Jun-18 18:08 33.670659 -117.868104 214 59ft 0kts
23-Jun-18 18:09 33.670655 -117.868107 214 59ft 0kts
23-Jun-18 18:10 33.670848 -117.868496 312 59ft 3kts
23-Jun-18 18:11 33.671765 -117.868344 30 59ft 9kts
23-Jun-18 18:12 33.674130 -117.867072 27 59ft 8kts
23-Jun-18 18:13 33.676931 -117.865317 27 59ft 13kts
23-Jun-18 18:14 33.679853 -117.863544 349 59ft 2kts
23-Jun-18 18:15 33.679963 -117.863649 298 59ft 0kts
23-Jun-18 18:16 33.680004 -117.863741 297 59ft 6kts
23-Jun-18 18:17 33.667127 -117.872407 209 452ft 101kts
23-Jun-18 18:18 33.651701 -117.900647 253 1681ft 107kts
23-Jun-18 18:19 33.648688 -117.935169 289 2830ft 109kts
23-Jun-18 18:20 33.661179 -117.967443 297 3972ft 105kts
23-Jun-18 18:21 33.674082 -117.997900 300 3994ft 99kts
23-Jun-18 18:22 33.686840 -118.027111 296 4022ft 105kts
23-Jun-18 18:23 33.699761 -118.060091 296 4021ft 111kts
23-Jun-18 18:24 33.713768 -118.095673 296 4018ft 123kts
23-Jun-18 18:25 33.728643 -118.133369 296 4021ft 125kts
23-Jun-18 18:26 33.743514 -118.171140 296 4020ft 125kts
23-Jun-18 18:27 33.761824 -118.206281 315 4020ft 124kts
23-Jun-18 18:28 33.787999 -118.233569 320 4020ft 124kts
23-Jun-18 18:29 33.814540 -118.260163 320 4020ft 124kts
23-Jun-18 18:30 33.841795 -118.287466 320 4019ft 128kts
23-Jun-18 18:31 33.869313 -118.315056 320 4020ft 128kts
23-Jun-18 18:32 33.896739 -118.342581 320 4020ft 128kts
23-Jun-18 18:33 33.924230 -118.370193 320 4020ft 128kts
23-Jun-18 18:34 33.951740 -118.397845 319 4021ft 129kts
23-Jun-18 18:35 33.979245 -118.425523 319 4020ft 128kts
23-Jun-18 18:36 34.006787 -118.453256 320 4020ft 128kts
23-Jun-18 18:37 34.037762 -118.474426 331 4020ft 128kts
23-Jun-18 18:38 34.069258 -118.494678 331 4047ft 128kts
23-Jun-18 18:39 34.100662 -118.514913 331 4462ft 126kts
23-Jun-18 18:40 34.131850 -118.535033 331 4858ft 126kts
23-Jun-18 18:41 34.164413 -118.551667 353 4998ft 129kts
23-Jun-18 18:42 34.200508 -118.555893 352 5000ft 131kts
23-Jun-18 18:43 34.237186 -118.559787 352 5000ft 133kts
23-Jun-18 18:44 34.274198 -118.563514 352 4998ft 133kts
23-Jun-18 18:45 34.310363 -118.568035 352 4999ft 129kts
23-Jun-18 18:46 34.346267 -118.572623 352 4999ft 129kts
23-Jun-18 18:47 34.382170 -118.576925 352 4999ft 130kts
23-Jun-18 18:48 34.418582 -118.580891 352 5001ft 132kts
23-Jun-18 18:49 34.455180 -118.580645 24 5002ft 135kts
23-Jun-18 18:50 34.483659 -118.567047 22 4996ft 91kts
23-Jun-18 18:51 34.505914 -118.555830 34 5000ft 83kts
23-Jun-18 18:52 34.495721 -118.533094 152 5014ft 127kts
23-Jun-18 18:53 34.463072 -118.511164 172 5005ft 143kts
23-Jun-18 18:54 34.422718 -118.506933 178 5001ft 147kts
23-Jun-18 18:55 34.381425 -118.503754 177 4989ft 150kts
23-Jun-18 18:56 34.340186 -118.500643 176 4208ft 125kts
23-Jun-18 18:57 34.310297 -118.500087 175 3334ft 97kts
23-Jun-18 18:58 34.283955 -118.497259 174 2567ft 90kts
23-Jun-18 18:59 34.258307 -118.494822 174 1979ft 91kts
23-Jun-18 19:00 34.234492 -118.492681 175 1402ft 81kts
23-Jun-18 19:01 34.213737 -118.490737 176 809ft 62kts
23-Jun-18 19:02 34.207754 -118.491326 176 805ft 8kts
23-Jun-18 19:03 34.207134 -118.491792 358 805ft 0kts

Navigation Log

Ident Type
Flight plan parsing failed, navigation log unavailable